Time;durP1;ratioP1;P1;durP2;ratioP2;P2;SDS_P1;SDS_P2;PMS_P1;PMS_P2;Temp;Humidity;BMP_temperature;BMP_pressure;BME280_temperature;BME280_humidity;BME280_pressure;Samples;Min_cycle;Max_cycle;Signal;HPM_P1;HPM_P2
2022/05/03 00:00:03;;;;;;;35.17;11.30;;;17.80;88.00;;;;;;6309286;22;20006;-69
2022/05/03 00:02:50;;;;;;;;;;;17.80;88.10;;;;;;6337625;22;19998;-69
2022/05/03 00:05:24;;;;;;;12.68;5.30;;;17.80;87.80;;;;;;6335922;22;19958;-69
2022/05/03 00:08:04;;;;;;;15.00;6.30;;;17.80;87.60;;;;;;6309353;22;20026;-69
2022/05/03 00:10:45;;;;;;;16.52;4.70;;;17.90;87.20;;;;;;6309768;22;20439;-69
2022/05/03 00:13:15;;;;;;;12.27;3.53;;;17.90;86.90;;;;;;6308147;22;20033;-69
2022/05/03 00:15:42;;;;;;;9.35;3.17;;;18.00;86.80;;;;;;6284006;22;20011;-69
2022/05/03 00:18:10;;;;;;;9.50;2.83;;;18.10;86.80;;;;;;6283139;22;20112;-69
2022/05/03 00:20:37;;;;;;;12.23;3.10;;;18.10;86.50;;;;;;6308746;22;20045;-69
2022/05/03 00:23:04;;;;;;;20.50;5.93;;;18.10;86.40;;;;;;6336835;22;20003;-69
2022/05/03 00:25:31;;;;;;;11.00;4.15;;;18.20;86.20;;;;;;6312445;22;20381;-70
2022/05/03 00:27:59;;;;;;;19.90;6.60;;;18.20;86.00;;;;;;6312447;22;19995;-69
2022/05/03 00:30:26;;;;;;;19.88;7.07;;;18.30;86.40;;;;;;6312258;22;20007;-69
2022/05/03 00:32:54;;;;;;;15.00;5.15;;;18.30;86.50;;;;;;6286433;22;20307;-69
2022/05/03 00:35:21;;;;;;;16.90;6.57;;;18.30;86.20;;;;;;6313091;22;19998;-69
2022/05/03 00:37:49;;;;;;;24.75;9.75;;;18.30;85.80;;;;;;6340184;22;20418;-69
2022/05/03 00:40:18;;;;;;;13.52;4.20;;;18.30;85.90;;;;;;6339965;22;20038;-69
2022/05/03 00:43:11;;;;;;;13.23;3.65;;;18.40;85.70;;;;;;6287100;22;20003;-69
2022/05/03 00:45:49;;;;;;;8.45;2.90;;;18.40;85.70;;;;;;6312047;22;20007;-69
2022/05/03 00:48:22;;;;;;;6.70;2.42;;;18.40;85.60;;;;;;6287469;22;20460;-69
2022/05/03 00:51:17;;;;;;;4.22;2.00;;;18.50;85.40;;;;;;6339920;22;20100;-70
2022/05/03 00:54:04;;;;;;;15.88;7.40;;;18.50;85.10;;;;;;6312568;22;20098;-69
2022/05/03 00:56:42;;;;;;;6.97;3.10;;;18.60;84.90;;;;;;6313552;22;20009;-69
2022/05/03 00:59:12;;;;;;;5.18;1.75;;;18.60;84.60;;;;;;6286609;22;20445;-67
2022/05/03 01:02:02;;;;;;;7.55;2.00;;;18.70;84.70;;;;;;6339768;22;19994;-67
2022/05/03 01:04:41;;;;;;;4.72;1.58;;;18.70;85.00;;;;;;6289745;22;20003;-69
2022/05/03 01:07:08;;;;;;;8.90;2.00;;;18.70;84.60;;;;;;6339677;22;19999;-69
2022/05/03 01:09:44;;;;;;;7.43;1.90;;;18.80;84.60;;;;;;6327289;22;20037;-67
2022/05/03 01:12:22;;;;;;;3.58;1.63;;;18.80;84.50;;;;;;6312024;22;19999;-69
2022/05/03 01:15:10;;;;;;;4.25;1.67;;;18.80;83.90;;;;;;6312457;22;20002;-69
2022/05/03 01:17:44;;;;;;;5.00;1.67;;;18.90;83.70;;;;;;6340025;22;20047;-69
2022/05/03 01:20:15;;;;;;;5.93;2.00;;;18.90;83.60;;;;;;6339330;22;20034;-70
2022/05/03 01:22:48;;;;;;;17.63;7.88;;;19.00;83.90;;;;;;6287683;22;20022;-69
2022/05/03 01:25:47;;;;;;;9.23;3.45;;;19.00;83.40;;;;;;6340006;22;20112;-69
2022/05/03 01:28:32;;;;;;;9.48;2.30;;;19.00;83.20;;;;;;6229294;22;20016;-69
2022/05/03 01:31:04;;;;;;;8.18;2.20;;;19.10;83.50;;;;;;6289349;22;20007;-69
2022/05/03 01:33:34;;;;;;;13.75;4.60;;;19.10;83.30;;;;;;6313508;22;20005;-69
2022/05/03 01:36:01;;;;;;;5.60;1.98;;;19.10;83.30;;;;;;6310879;22;20017;-69
2022/05/03 01:38:34;;;;;;;4.18;1.70;;;19.10;82.40;;;;;;6283948;22;20007;-69
2022/05/03 01:41:09;;;;;;;4.85;1.60;;;19.10;82.10;;;;;;6310662;22;20014;-69
2022/05/03 01:43:58;;;;;;;4.03;1.35;;;19.20;81.80;;;;;;6338061;22;20042;-69
2022/05/03 01:46:28;;;;;;;3.45;1.30;;;19.20;81.20;;;;;;6312464;22;19999;-70
2022/05/03 01:51:57;;;;;;;3.28;1.27;;;19.20;79.90;;;;;;6314404;22;20095;-69
2022/05/03 01:54:54;;;;;;;3.97;1.38;;;19.30;80.40;;;;;;6336409;22;20006;-69
2022/05/03 01:57:37;;;;;;;5.40;1.35;;;19.30;79.90;;;;;;6337689;22;20026;-69
2022/05/03 02:00:09;;;;;;;6.20;1.88;;;19.30;79.80;;;;;;6312152;22;20007;-69
2022/05/03 02:02:57;;;;;;;12.85;1.70;;;19.30;79.70;;;;;;6337407;22;19999;-69
2022/05/03 02:05:35;;;;;;;6.82;2.10;;;19.40;78.80;;;;;;6284271;22;20022;-69
2022/05/03 02:08:02;;;;;;;5.43;1.30;;;19.40;78.00;;;;;;6337677;22;20082;-69
2022/05/03 02:10:42;;;;;;;6.68;1.40;;;19.50;77.40;;;;;;6284754;22;20003;-69
2022/05/03 02:16:39;;;;;;;3.78;1.33;;;19.60;77.20;;;;;;6337791;22;20030;-69
2022/05/03 02:19:24;;;;;;;4.40;1.20;;;19.60;77.60;;;;;;6286629;22;20094;-69
2022/05/03 02:21:53;;;;;;;6.47;1.80;;;19.60;76.50;;;;;;6284084;22;20011;-69
2022/05/03 02:24:33;;;;;;;8.93;1.67;;;19.60;78.20;;;;;;6338424;22;20022;-69
2022/05/03 02:27:04;;;;;;;7.35;1.73;;;19.70;76.60;;;;;;6285706;22;19999;-69
2022/05/03 02:29:46;;;;;;;3.67;1.08;;;19.70;77.20;;;;;;6284439;22;20007;-69
2022/05/03 02:32:20;;;;;;;8.13;1.38;;;19.60;75.90;;;;;;6285966;22;20025;-70
2022/05/03 02:34:57;;;;;;;9.32;1.80;;;19.60;76.00;;;;;;6285809;22;20076;-69
2022/05/03 02:37:27;;;;;;;10.88;1.90;;;19.70;76.10;;;;;;6285241;22;20074;-67
2022/05/03 02:40:02;;;;;;;7.25;2.05;;;19.70;74.30;;;;;;6310123;22;20014;-69
2022/05/03 02:42:30;;;;;;;12.93;2.15;;;19.80;74.60;;;;;;6285229;22;20299;-69
2022/05/03 02:44:57;;;;;;;11.55;1.92;;;19.80;73.70;;;;;;6283319;22;20006;-69
2022/05/03 02:47:41;;;;;;;8.32;2.13;;;19.80;73.70;;;;;;6283817;22;20468;-69
2022/05/03 02:50:14;;;;;;;7.38;1.80;;;19.80;73.50;;;;;;6309753;22;20026;-69
2022/05/03 02:52:48;;;;;;;7.05;1.67;;;19.90;74.10;;;;;;6309803;22;20003;-69
2022/05/03 02:55:36;;;;;;;6.82;1.50;;;19.90;74.00;;;;;;6309658;22;20276;-69
2022/05/03 02:58:15;;;;;;;3.63;1.33;;;19.90;72.90;;;;;;6309771;22;20301;-70
2022/05/03 03:04:03;;;;;;;9.80;1.48;;;19.90;71.60;;;;;;6293510;22;20452;-70
2022/05/03 03:06:35;;;;;;;5.28;1.23;;;20.00;72.40;;;;;;6309815;22;20030;-69
2022/05/03 03:09:03;;;;;;;9.30;1.55;;;20.10;73.60;;;;;;6336845;22;20073;-69
2022/05/03 03:11:32;;;;;;;8.07;2.20;;;20.10;73.30;;;;;;6310042;22;20003;-69
2022/05/03 03:14:19;;;;;;;9.02;1.67;;;20.10;72.00;;;;;;6337110;22;19995;-70
2022/05/03 03:17:01;;;;;;;8.10;1.70;;;20.20;72.90;;;;;;6337202;22;20006;-69
2022/05/03 03:20:02;;;;;;;9.43;1.85;;;20.20;73.10;;;;;;6284899;22;20340;-69
2022/05/03 03:22:37;;;;;;;9.63;1.90;;;20.20;73.00;;;;;;6336729;22;20124;-69
2022/05/03 03:25:05;;;;;;;4.50;1.33;;;20.20;73.20;;;;;;6284559;22;20067;-69
2022/05/03 03:27:32;;;;;;;9.07;1.85;;;20.20;72.50;;;;;;6257690;22;20102;-69
2022/05/03 03:30:01;;;;;;;11.60;1.98;;;20.20;73.60;;;;;;6284135;22;20078;-69
2022/05/03 03:32:28;;;;;;;14.73;2.03;;;20.10;73.30;;;;;;6283350;22;20334;-69
2022/05/03 03:34:56;;;;;;;9.50;1.90;;;20.20;73.20;;;;;;6309745;22;20370;-69
2022/05/03 03:37:26;;;;;;;7.30;1.52;;;20.20;73.70;;;;;;6309559;22;20005;-69
2022/05/03 03:39:53;;;;;;;5.75;1.98;;;20.20;73.70;;;;;;6336916;22;20489;-69
2022/05/03 03:42:20;;;;;;;10.82;2.33;;;20.20;73.50;;;;;;6309194;22;19999;-69
2022/05/03 03:44:48;;;;;;;10.95;2.33;;;20.20;74.50;;;;;;6336270;22;20011;-69
2022/05/03 03:47:16;;;;;;;15.48;2.85;;;20.20;72.60;;;;;;6309613;22;20365;-69
2022/05/03 03:49:44;;;;;;;11.65;2.55;;;20.30;72.20;;;;;;6283355;22;20019;-69
2022/05/03 03:52:11;;;;;;;11.95;1.77;;;20.30;73.00;;;;;;6283305;22;20011;-69
2022/05/03 03:54:41;;;;;;;10.50;2.10;;;20.30;72.40;;;;;;6309498;22;20028;-69
2022/05/03 03:57:09;;;;;;;21.35;2.97;;;20.30;72.80;;;;;;6310215;22;19998;-69
2022/05/03 03:59:37;;;;;;;18.00;2.42;;;20.30;72.90;;;;;;6283475;22;20011;-69
2022/05/03 04:02:06;;;;;;;16.98;3.80;;;20.30;73.80;;;;;;6309597;22;20025;-70
2022/05/03 04:04:36;;;;;;;8.13;2.30;;;20.40;73.10;;;;;;6283972;22;20052;-69
2022/05/03 04:07:04;;;;;;;18.33;2.20;;;20.30;73.50;;;;;;6309633;22;20098;-69
2022/05/03 04:09:31;;;;;;;9.73;1.90;;;20.30;74.10;;;;;;6336734;22;20011;-69
2022/05/03 04:12:03;;;;;;;8.18;1.60;;;20.40;73.40;;;;;;6336579;22;20150;-69
2022/05/03 04:14:30;;;;;;;15.40;2.42;;;20.40;72.80;;;;;;6310323;22;20006;-69
2022/05/03 04:16:58;;;;;;;18.55;2.85;;;20.40;74.40;;;;;;6309339;22;20003;-69
2022/05/03 04:19:25;;;;;;;10.52;2.03;;;20.40;73.60;;;;;;6308267;22;20014;-69
2022/05/03 04:21:52;;;;;;;11.75;2.25;;;20.30;74.40;;;;;;6308904;22;20007;-70
2022/05/03 04:24:20;;;;;;;10.25;1.63;;;20.30;74.40;;;;;;6308090;22;20070;-70
2022/05/03 04:26:47;;;;;;;10.57;2.15;;;20.40;73.80;;;;;;6309257;22;20009;-69
2022/05/03 04:29:14;;;;;;;12.57;2.47;;;20.40;74.40;;;;;;6336179;22;20094;-69
2022/05/03 04:31:42;;;;;;;9.57;2.20;;;20.50;73.90;;;;;;6308981;22;20094;-69
2022/05/03 04:34:09;;;;;;;8.27;1.55;;;20.40;75.10;;;;;;6336648;22;20003;-69
2022/05/03 04:36:36;;;;;;;10.80;2.10;;;20.40;74.00;;;;;;6336527;22;20006;-69
2022/05/03 04:39:04;;;;;;;12.50;2.17;;;20.40;75.10;;;;;;6336739;22;19999;-69
2022/05/03 04:41:31;;;;;;;16.75;2.42;;;20.40;75.10;;;;;;6309087;22;20441;-70
2022/05/03 04:43:59;;;;;;;10.35;2.30;;;20.40;74.90;;;;;;6283391;22;20370;-69
2022/05/03 04:46:26;;;;;;;12.00;2.08;;;20.40;75.00;;;;;;6309251;22;20007;-69
2022/05/03 04:48:53;;;;;;;7.10;1.45;;;20.40;75.60;;;;;;6309166;22;20019;-69
2022/05/03 04:51:21;;;;;;;10.23;2.08;;;20.30;75.70;;;;;;6283796;22;20461;-69
2022/05/03 04:53:49;;;;;;;7.75;2.00;;;20.30;75.40;;;;;;6283385;22;20018;-69
2022/05/03 04:56:23;;;;;;;11.57;2.03;;;20.40;74.70;;;;;;6309036;22;20003;-69
2022/05/03 04:58:51;;;;;;;9.70;1.85;;;20.40;75.00;;;;;;6310106;22;20009;-69
2022/05/03 05:01:19;;;;;;;13.30;2.10;;;20.40;74.60;;;;;;6308790;22;20007;-69
2022/05/03 05:03:46;;;;;;;14.93;2.08;;;20.40;74.80;;;;;;6336440;22;20005;-69
2022/05/03 05:06:13;;;;;;;8.68;1.63;;;20.30;74.70;;;;;;6308865;22;20018;-69
2022/05/03 05:08:42;;;;;;;9.63;1.73;;;20.30;74.80;;;;;;6336189;22;20056;-69
2022/05/03 05:11:10;;;;;;;7.30;1.50;;;20.20;75.10;;;;;;6309364;22;20414;-69
2022/05/03 05:13:37;;;;;;;18.90;2.30;;;20.20;75.20;;;;;;6308543;22;20010;-69
2022/05/03 05:16:06;;;;;;;10.15;1.77;;;20.20;75.60;;;;;;6284889;22;20003;-69
2022/05/03 05:18:33;;;;;;;6.00;1.50;;;20.10;75.30;;;;;;6310966;22;20002;-69
2022/05/03 05:21:00;;;;;;;6.45;1.90;;;20.10;74.80;;;;;;6310589;22;20021;-69
2022/05/03 05:23:27;;;;;;;18.35;2.45;;;20.20;74.70;;;;;;6310864;22;20080;-68
2022/05/03 05:25:55;;;;;;;11.27;2.72;;;20.20;74.30;;;;;;6310982;22;20026;-68
2022/05/03 05:28:22;;;;;;;16.10;2.70;;;20.20;74.60;;;;;;6310623;22;20311;-69
2022/05/03 05:30:51;;;;;;;10.18;1.77;;;20.10;74.90;;;;;;6311150;22;20002;-69
2022/05/03 05:33:20;;;;;;;13.60;2.60;;;20.10;75.00;;;;;;6311017;22;20005;-69
2022/05/03 05:35:48;;;;;;;23.13;4.35;;;20.10;73.90;;;;;;6285701;22;20007;-69
2022/05/03 05:38:17;;;;;;;15.75;3.30;;;20.10;73.70;;;;;;6310983;22;19999;-68
2022/05/03 05:40:47;;;;;;;9.60;1.70;;;20.10;74.00;;;;;;6285405;22;20011;-68
2022/05/03 05:43:15;;;;;;;8.23;1.85;;;20.20;72.90;;;;;;6337615;22;20010;-68
2022/05/03 05:45:42;;;;;;;7.13;1.60;;;20.20;72.80;;;;;;6337513;22;20030;-68
2022/05/03 05:48:10;;;;;;;8.32;1.80;;;20.20;73.60;;;;;;6337355;22;20022;-68
2022/05/03 05:50:37;;;;;;;10.55;1.70;;;20.20;74.40;;;;;;6337689;22;20070;-68
2022/05/03 05:55:50;;;;;;;8.57;1.70;;;20.10;75.30;;;;;;6314425;22;20086;-68
2022/05/03 05:58:18;;;;;;;13.30;1.90;;;20.10;75.20;;;;;;6284149;22;20003;-69
2022/05/03 06:00:45;;;;;;;14.52;2.25;;;20.00;75.30;;;;;;6337563;22;20010;-69
2022/05/03 06:03:13;;;;;;;8.35;1.83;;;20.00;74.70;;;;;;6336138;22;20063;-68
2022/05/03 06:05:41;;;;;;;6.90;1.90;;;20.00;74.30;;;;;;6310374;22;20009;-69
2022/05/03 06:08:09;;;;;;;9.38;2.10;;;20.00;74.80;;;;;;6336849;22;20007;-69
2022/05/03 06:10:36;;;;;;;12.63;2.20;;;20.00;74.90;;;;;;6337295;22;20018;-69
2022/05/03 06:13:04;;;;;;;13.75;2.42;;;20.00;75.40;;;;;;6284789;22;20022;-69
2022/05/03 06:15:31;;;;;;;15.85;2.67;;;20.00;75.00;;;;;;6337633;22;19999;-68
2022/05/03 06:17:58;;;;;;;3.97;1.70;;;20.00;75.00;;;;;;6310568;22;20085;-68
2022/05/03 06:20:26;;;;;;;9.18;1.90;;;20.00;74.70;;;;;;6309810;22;20006;-68
2022/05/03 06:22:53;;;;;;;8.55;1.85;;;20.10;74.80;;;;;;6337068;22;20022;-67
2022/05/03 06:25:20;;;;;;;12.10;2.00;;;20.00;75.30;;;;;;6337213;22;20007;-68
2022/05/03 06:27:47;;;;;;;9.75;2.40;;;20.00;75.70;;;;;;6337633;22;19995;-68
2022/05/03 06:30:14;;;;;;;10.23;2.47;;;20.00;75.70;;;;;;6337540;22;20034;-68
2022/05/03 06:32:43;;;;;;;7.68;1.90;;;19.90;76.10;;;;;;6309606;22;20003;-68
2022/05/03 06:35:12;;;;;;;5.93;1.48;;;19.90;76.30;;;;;;6337759;22;20322;-68
2022/05/03 06:37:42;;;;;;;7.80;2.13;;;19.80;76.40;;;;;;6310124;22;20002;-68
2022/05/03 06:40:10;;;;;;;5.47;1.60;;;19.90;76.80;;;;;;6285000;22;20038;-68
2022/05/03 06:42:38;;;;;;;5.47;1.88;;;19.80;76.80;;;;;;6283995;22;20003;-68
2022/05/03 06:45:07;;;;;;;6.70;1.48;;;19.80;76.90;;;;;;6283856;22;20372;-68
2022/05/03 06:47:34;;;;;;;8.00;1.70;;;19.80;76.80;;;;;;6309307;22;20019;-68
2022/05/03 06:50:01;;;;;;;4.80;1.40;;;19.80;76.30;;;;;;6336690;22;20010;-69
2022/05/03 06:52:55;;;;;;;9.30;1.65;;;19.70;76.00;;;;;;6308560;22;20387;-68
2022/05/03 06:55:23;;;;;;;6.03;1.45;;;19.70;75.80;;;;;;6336673;22;20080;-68
2022/05/03 06:57:51;;;;;;;7.03;1.60;;;19.70;76.10;;;;;;6334423;22;20028;-67
2022/05/03 07:00:18;;;;;;;4.45;1.67;;;19.70;76.00;;;;;;6333113;22;20038;-67
2022/05/03 07:02:45;;;;;;;4.47;1.40;;;19.70;76.30;;;;;;6332843;22;20010;-67
2022/05/03 07:05:12;;;;;;;5.68;1.70;;;19.70;76.40;;;;;;6305777;22;20082;-69
2022/05/03 07:07:40;;;;;;;5.53;1.60;;;19.70;76.50;;;;;;6278814;22;20010;-67
2022/05/03 07:10:07;;;;;;;5.25;1.38;;;19.60;76.50;;;;;;6279265;22;20057;-67
2022/05/03 07:12:35;;;;;;;5.50;1.60;;;19.60;76.80;;;;;;6332738;22;20002;-66
2022/05/03 07:15:05;;;;;;;5.10;1.45;;;19.60;76.90;;;;;;6305485;22;20081;-67
2022/05/03 07:23:03;;;;;;;8.98;1.90;;;19.50;77.40;;;;;;6308958;22;20060;-67
2022/05/03 07:25:31;;;;;;;6.97;1.30;;;19.50;77.50;;;;;;6305075;22;20075;-67
2022/05/03 07:27:59;;;;;;;5.78;1.63;;;19.50;77.60;;;;;;6332831;22;20007;-67
2022/05/03 07:30:26;;;;;;;18.23;2.00;;;19.50;77.80;;;;;;6305203;22;20344;-71
2022/05/03 07:32:53;;;;;;;5.25;1.38;;;19.50;77.70;;;;;;6332696;22;20002;-71
2022/05/03 07:35:21;;;;;;;5.38;1.70;;;19.50;77.80;;;;;;6332735;22;20010;-67
2022/05/03 07:37:50;;;;;;;8.10;1.65;;;19.50;78.00;;;;;;6333083;22;20010;-67
2022/05/03 07:40:17;;;;;;;6.65;1.33;;;19.50;78.20;;;;;;6303638;22;20015;-66
2022/05/03 07:42:45;;;;;;;8.90;1.40;;;19.40;78.20;;;;;;6303009;22;20003;-71
2022/05/03 07:45:12;;;;;;;8.57;1.70;;;19.40;78.10;;;;;;6332027;22;20414;-71
2022/05/03 07:47:39;;;;;;;3.67;1.17;;;19.40;78.10;;;;;;6332530;22;20342;-72
2022/05/03 07:50:07;;;;;;;6.28;1.27;;;19.40;78.00;;;;;;6304694;22;20003;-71
2022/05/03 07:52:36;;;;;;;5.53;1.80;;;19.40;78.20;;;;;;6333298;22;20349;-72
2022/05/03 07:55:05;;;;;;;5.40;1.50;;;19.40;78.20;;;;;;6305026;22;19999;-72
2022/05/03 07:57:32;;;;;;;6.25;2.08;;;19.40;78.10;;;;;;6279084;22;20068;-71
2022/05/03 08:00:00;;;;;;;5.53;1.58;;;19.40;77.90;;;;;;6332267;22;20032;-71
2022/05/03 08:02:27;;;;;;;6.50;1.40;;;19.40;77.80;;;;;;6332381;22;20055;-70
2022/05/03 08:04:55;;;;;;;2.47;1.17;;;19.40;77.80;;;;;;6304671;22;20003;-70
2022/05/03 08:07:22;;;;;;;4.53;1.77;;;19.40;77.80;;;;;;6304268;22;20058;-70
2022/05/03 08:09:49;;;;;;;4.10;1.40;;;19.40;77.80;;;;;;6332622;22;20034;-71
2022/05/03 08:12:17;;;;;;;4.45;1.40;;;19.40;77.90;;;;;;6332177;22;20078;-71
2022/05/03 08:14:44;;;;;;;4.13;1.27;;;19.30;78.10;;;;;;6279495;22;20003;-71
2022/05/03 08:17:11;;;;;;;7.32;1.80;;;19.30;78.30;;;;;;6304516;22;20002;-71
2022/05/03 08:19:38;;;;;;;7.53;1.50;;;19.30;78.50;;;;;;6329909;22;20097;-69
2022/05/03 08:22:06;;;;;;;5.50;1.27;;;19.30;78.60;;;;;;6279779;22;20014;-69
2022/05/03 08:24:33;;;;;;;5.53;1.42;;;19.30;78.70;;;;;;6280015;22;20007;-69
2022/05/03 08:27:01;;;;;;;8.88;1.90;;;19.30;78.90;;;;;;6305210;22;19999;-70
2022/05/03 08:29:29;;;;;;;6.88;1.80;;;19.30;79.00;;;;;;6279166;22;20013;-69
2022/05/03 08:31:56;;;;;;;3.97;1.42;;;19.30;79.20;;;;;;6332197;22;20063;-70
2022/05/03 08:34:24;;;;;;;4.22;1.65;;;19.30;79.30;;;;;;6332122;22;20006;-69
2022/05/03 08:42:22;;;;;;;9.73;2.00;;;19.30;79.50;;;;;;6308212;22;20049;-69
2022/05/03 08:44:49;;;;;;;4.43;1.50;;;19.30;79.70;;;;;;6280017;22;20009;-69
2022/05/03 08:47:18;;;;;;;4.60;1.55;;;19.30;79.70;;;;;;6333840;22;20061;-72
2022/05/03 08:50:08;;;;;;;8.38;1.77;;;19.30;79.60;;;;;;6280575;22;20414;-72
2022/05/03 08:52:47;;;;;;;4.68;1.73;;;19.30;79.60;;;;;;6307091;22;20007;-72
2022/05/03 08:55:14;;;;;;;4.53;1.27;;;19.30;79.60;;;;;;6282525;22;20060;-71
2022/05/03 08:57:45;;;;;;;6.53;1.98;;;19.30;79.60;;;;;;6334003;22;20017;-71
2022/05/03 09:00:13;;;;;;;5.68;1.60;;;19.20;79.60;;;;;;6306829;22;20433;-71
2022/05/03 09:02:44;;;;;;;5.38;1.60;;;19.20;79.80;;;;;;6306550;22;20001;-71
2022/05/03 09:05:12;;;;;;;7.55;1.60;;;19.20;79.80;;;;;;6333904;22;20029;-71
2022/05/03 09:07:39;;;;;;;5.35;1.60;;;19.30;79.80;;;;;;6281015;22;20063;-71
2022/05/03 09:10:25;;;;;;;4.53;1.50;;;19.20;80.00;;;;;;6307238;22;20379;-71
2022/05/03 09:12:54;;;;;;;6.05;2.08;;;19.20;80.10;;;;;;6306165;22;20007;-71
2022/05/03 09:15:32;;;;;;;4.03;1.70;;;19.20;80.20;;;;;;6282490;22;20424;-71
2022/05/03 09:18:00;;;;;;;5.55;1.52;;;19.10;80.50;;;;;;6306432;22;20007;-71
2022/05/03 09:26:14;;;;;;;13.70;5.47;;;19.10;80.80;;;;;;6289324;22;20345;-70
2022/05/03 09:28:48;;;;;;;15.10;4.97;;;19.10;80.80;;;;;;6305655;22;20031;-70
2022/05/03 09:31:28;;;;;;;11.65;3.72;;;19.00;81.10;;;;;;6305881;22;20007;-68
2022/05/03 09:33:55;;;;;;;;;;;19.10;81.10;;;;;;6309738;22;20037;-70
2022/05/03 09:36:22;;;;;;;20.65;10.73;;;19.00;81.10;;;;;;6306469;22;20187;-68
2022/05/03 09:38:51;;;;;;;25.00;11.27;;;19.00;81.30;;;;;;6280541;22;20006;-68
2022/05/03 09:41:18;;;;;;;17.05;8.50;;;19.00;81.50;;;;;;6280929;22;20406;-69
2022/05/03 09:44:01;;;;;;;11.50;4.57;;;19.00;81.50;;;;;;6305485;22;20430;-70
2022/05/03 09:46:51;;;;;;;10.57;5.78;;;19.00;81.50;;;;;;6280690;22;20518;-68
2022/05/03 09:49:20;;;;;;;8.00;3.35;;;19.10;81.70;;;;;;6284292;22;20022;-71
2022/05/03 09:51:48;;;;;;;5.10;2.20;;;19.00;82.00;;;;;;6281327;22;20110;-72
2022/05/03 09:54:16;;;;;;;5.38;2.20;;;19.00;81.90;;;;;;6305882;22;20011;-72
2022/05/03 09:56:47;;;;;;;5.68;2.08;;;19.00;82.10;;;;;;6305874;22;20073;-72
2022/05/03 09:59:14;;;;;;;7.32;2.00;;;18.90;82.00;;;;;;6306429;22;20414;-72
2022/05/03 10:01:42;;;;;;;5.95;2.00;;;18.90;82.30;;;;;;6280723;22;20002;-70
2022/05/03 10:04:09;;;;;;;7.82;2.30;;;18.90;82.80;;;;;;6281101;22;20433;-70
2022/05/03 10:06:36;;;;;;;4.55;1.90;;;18.80;82.80;;;;;;6279963;22;20007;-69
2022/05/03 10:09:03;;;;;;;7.07;2.00;;;18.80;82.90;;;;;;6306173;22;20029;-71
2022/05/03 10:11:32;;;;;;;6.78;2.28;;;18.80;83.00;;;;;;6305863;22;20019;-71
2022/05/03 10:13:59;;;;;;;9.35;2.67;;;18.80;83.20;;;;;;6280483;22;20002;-69
2022/05/03 10:22:09;;;;;;;5.25;2.45;;;18.70;83.70;;;;;;6333416;22;20022;-68
2022/05/03 10:24:53;;;;;;;9.48;2.55;;;18.70;83.70;;;;;;6280370;22;19998;-68
2022/05/03 10:27:25;;;;;;;6.15;2.60;;;18.60;84.10;;;;;;6333497;22;20015;-68
2022/05/03 10:30:18;;;;;;;6.25;2.33;;;18.50;84.30;;;;;;6333329;22;20425;-68
2022/05/03 10:33:05;;;;;;;8.55;2.42;;;18.60;84.20;;;;;;6305745;22;20003;-69
2022/05/03 10:35:34;;;;;;;7.47;2.50;;;18.60;84.40;;;;;;6309510;22;20002;-68
2022/05/03 10:38:02;;;;;;;8.50;2.50;;;18.60;84.40;;;;;;6306157;22;20052;-69
2022/05/03 10:40:39;;;;;;;7.38;2.38;;;18.60;84.50;;;;;;6305716;22;20057;-69
2022/05/03 10:43:10;;;;;;;6.97;2.20;;;18.50;84.50;;;;;;6306499;22;20026;-69
2022/05/03 10:45:54;;;;;;;7.32;2.40;;;18.50;84.60;;;;;;6305586;22;20019;-69
2022/05/03 10:48:28;;;;;;;7.85;2.80;;;18.50;84.50;;;;;;6305904;22;20022;-70
2022/05/03 10:51:03;;;;;;;5.97;2.00;;;18.50;84.60;;;;;;6333208;22;20003;-70
2022/05/03 10:53:35;;;;;;;9.80;2.00;;;18.60;84.60;;;;;;6333496;22;20002;-70
2022/05/03 10:56:09;;;;;;;4.65;2.00;;;18.60;84.70;;;;;;6281260;22;20076;-69
2022/05/03 10:58:39;;;;;;;6.25;2.08;;;18.60;84.70;;;;;;6332394;22;20002;-68
2022/05/03 11:01:20;;;;;;;9.50;2.15;;;18.50;84.70;;;;;;6304813;22;20014;-69
2022/05/03 11:03:57;;;;;;;11.48;3.05;;;18.50;84.90;;;;;;6279300;22;20049;-71
2022/05/03 11:06:28;;;;;;;10.32;4.82;;;18.50;85.20;;;;;;6333312;22;20046;-70
2022/05/03 11:11:43;;;;;;;9.80;4.00;;;18.50;85.40;;;;;;6332561;22;20093;-71
2022/05/03 11:14:16;;;;;;;8.63;3.65;;;18.40;85.30;;;;;;6331783;22;20013;-72
2022/05/03 11:17:11;;;;;;;6.95;2.90;;;18.40;85.40;;;;;;6331891;22;20325;-72
2022/05/03 11:19:49;;;;;;;9.68;3.72;;;18.40;85.40;;;;;;6275936;22;20122;-70
2022/05/03 11:22:20;;;;;;;7.43;2.33;;;18.40;85.50;;;;;;6332397;22;20034;-72
2022/05/03 11:24:49;;;;;;;6.63;1.90;;;18.40;85.50;;;;;;6331662;22;20341;-70
2022/05/03 11:27:17;;;;;;;4.70;1.85;;;18.40;85.50;;;;;;6279698;22;19999;-70
2022/05/03 11:29:48;;;;;;;8.55;1.95;;;18.40;85.50;;;;;;6304555;22;20417;-70
2022/05/03 11:32:16;;;;;;;5.70;2.10;;;18.40;85.50;;;;;;6280303;22;20010;-70
2022/05/03 11:34:44;;;;;;;7.15;2.35;;;18.30;85.50;;;;;;6304723;22;20322;-70
2022/05/03 11:37:11;;;;;;;6.85;1.88;;;18.30;85.60;;;;;;6331892;22;20050;-70
2022/05/03 11:39:39;;;;;;;6.38;1.60;;;18.30;85.80;;;;;;6332038;22;20010;-70
2022/05/03 11:42:09;;;;;;;6.65;2.22;;;18.30;85.90;;;;;;6304326;22;20006;-71
2022/05/03 11:44:43;;;;;;;5.43;1.65;;;18.30;86.00;;;;;;6331573;22;20013;-70
2022/05/03 11:47:11;;;;;;;7.70;2.40;;;18.20;86.10;;;;;;6305158;22;20003;-70
2022/05/03 11:49:38;;;;;;;7.30;2.45;;;18.20;86.20;;;;;;6304993;22;20076;-71
2022/05/03 11:57:42;;;;;;;6.68;1.85;;;18.10;86.60;;;;;;6332505;22;20071;-70
2022/05/03 12:00:11;;;;;;;5.97;2.13;;;18.10;86.70;;;;;;6280861;22;20354;-71
2022/05/03 12:02:41;;;;;;;8.00;2.20;;;18.10;86.70;;;;;;6332153;22;20452;-69
2022/05/03 12:05:08;;;;;;;5.13;2.03;;;18.10;86.80;;;;;;6304607;22;20002;-69
2022/05/03 12:07:40;;;;;;;7.68;1.70;;;18.10;86.60;;;;;;6331461;22;20037;-71
2022/05/03 12:10:22;;;;;;;5.47;2.00;;;18.10;86.50;;;;;;6279316;22;19998;-69
2022/05/03 12:13:10;;;;;;;6.20;1.80;;;18.10;86.50;;;;;;6331621;22;20010;-70
2022/05/03 12:15:43;;;;;;;5.47;1.70;;;18.10;86.40;;;;;;6306135;22;19998;-73
2022/05/03 12:18:20;;;;;;;4.25;1.58;;;18.10;86.40;;;;;;6304891;22;19998;-71
2022/05/03 12:20:57;;;;;;;6.22;2.22;;;18.10;86.50;;;;;;6302554;22;20078;-71
2022/05/03 12:23:36;;;;;;;3.13;1.50;;;18.10;86.40;;;;;;6333360;22;20014;-71
2022/05/03 12:26:22;;;;;;;5.95;1.52;;;18.10;86.60;;;;;;6334857;22;20025;-70
2022/05/03 12:28:59;;;;;;;5.50;1.67;;;18.20;86.40;;;;;;6332191;22;20007;-70
2022/05/03 12:31:35;;;;;;;11.55;1.70;;;18.10;86.20;;;;;;6332590;22;20498;-71
2022/05/03 12:34:11;;;;;;;5.63;1.75;;;18.10;86.20;;;;;;6305368;22;20086;-71
2022/05/03 12:36:39;;;;;;;6.25;1.65;;;18.10;86.20;;;;;;6306651;22;20017;-71
2022/05/03 12:39:22;;;;;;;5.25;1.60;;;18.10;86.20;;;;;;6305138;22;20254;-71
2022/05/03 12:42:00;;;;;;;5.25;1.52;;;18.10;86.20;;;;;;6280009;22;20014;-71
2022/05/03 12:44:27;;;;;;;7.07;1.52;;;18.10;86.60;;;;;;6330725;22;20027;-71
2022/05/03 12:47:02;;;;;;;4.30;1.80;;;18.00;86.70;;;;;;6279174;22;20021;-71
2022/05/03 12:49:30;;;;;;;10.05;1.70;;;18.00;86.70;;;;;;6279544;22;20023;-71
2022/05/03 12:51:57;;;;;;;4.97;1.40;;;18.00;86.80;;;;;;6305109;22;20090;-71
2022/05/03 12:54:24;;;;;;;6.53;1.60;;;18.00;87.00;;;;;;6305257;22;20359;-71
2022/05/03 12:59:36;;;;;;;8.85;1.80;;;18.00;87.10;;;;;;6320008;22;20464;-71
2022/05/03 13:02:04;;;;;;;4.82;1.60;;;18.00;87.10;;;;;;6305082;22;20388;-71
2022/05/03 13:04:32;;;;;;;12.25;1.90;;;18.00;87.00;;;;;;6304294;22;20042;-71
2022/05/03 13:07:00;;;;;;;3.92;1.52;;;18.00;87.10;;;;;;6305168;22;19999;-71
2022/05/03 13:09:27;;;;;;;8.73;1.60;;;18.00;87.20;;;;;;6280353;22;20129;-71
2022/05/03 13:11:55;;;;;;;5.38;1.67;;;17.90;87.20;;;;;;6305532;22;20010;-71
2022/05/03 13:14:24;;;;;;;4.07;1.55;;;17.80;87.40;;;;;;6332681;22;20433;-71
2022/05/03 13:16:51;;;;;;;5.07;1.42;;;17.80;87.50;;;;;;6279789;22;20033;-71
2022/05/03 13:19:18;;;;;;;6.38;1.52;;;17.80;87.60;;;;;;6332211;22;20017;-71
2022/05/03 13:21:46;;;;;;;10.95;1.85;;;17.80;87.60;;;;;;6304638;22;20011;-71
2022/05/03 13:24:13;;;;;;;4.60;1.35;;;17.80;87.60;;;;;;6304721;22;20010;-71
2022/05/03 13:26:40;;;;;;;5.28;2.05;;;17.80;87.70;;;;;;6331702;22;20011;-71
2022/05/03 13:29:10;;;;;;;5.72;1.80;;;17.80;87.70;;;;;;6332654;22;20086;-71
2022/05/03 13:31:38;;;;;;;5.57;1.90;;;17.80;87.60;;;;;;6305264;22;20495;-71
2022/05/03 13:34:08;;;;;;;4.38;1.70;;;17.70;87.80;;;;;;6306373;22;20010;-71
2022/05/03 13:42:07;;;;;;;10.38;1.67;;;17.70;88.20;;;;;;6334373;22;20022;-71
2022/05/03 13:44:35;;;;;;;4.80;1.90;;;17.60;88.20;;;;;;6278813;22;20426;-71
2022/05/03 13:47:03;;;;;;;9.70;1.92;;;17.60;88.20;;;;;;6306554;22;20086;-71
2022/05/03 13:49:30;;;;;;;6.53;1.80;;;17.50;88.20;;;;;;6333529;22;20027;-71
2022/05/03 13:51:58;;;;;;;8.65;1.70;;;17.50;88.30;;;;;;6333765;22;20068;-71
2022/05/03 13:54:26;;;;;;;5.30;1.60;;;17.50;88.40;;;;;;6307007;22;20003;-71
2022/05/03 13:56:53;;;;;;;6.88;1.95;;;17.50;88.40;;;;;;6334003;22;20003;-71